createdAt,value
2022-11-28T00:01:41.302Z,5.03
2022-11-28T00:04:08.037Z,5.00
2022-11-28T00:06:41.167Z,4.38
2022-11-28T00:09:08.333Z,4.22
2022-11-28T00:11:35.103Z,4.60
2022-11-28T00:14:01.964Z,3.17
2022-11-28T00:16:28.569Z,4.03
2022-11-28T00:18:55.750Z,2.75
2022-11-28T00:21:23.440Z,3.38
2022-11-28T00:23:50.990Z,3.17
2022-11-28T00:26:38.288Z,3.47
2022-11-28T00:29:05.474Z,2.97
2022-11-28T00:31:35.856Z,2.58
2022-11-28T00:34:02.968Z,2.65
2022-11-28T00:36:30.293Z,3.03
2022-11-28T00:38:56.915Z,3.15
2022-11-28T00:41:28.492Z,3.63
2022-11-28T00:43:55.432Z,3.33
2022-11-28T00:46:23.832Z,3.42
2022-11-28T00:48:51.116Z,3.65
2022-11-28T00:51:23.734Z,3.60
2022-11-28T00:53:52.211Z,4.10
2022-11-28T00:56:24.551Z,4.57
2022-11-28T00:58:51.697Z,4.72
2022-11-28T01:01:34.991Z,4.10
2022-11-28T01:04:03.950Z,4.10
2022-11-28T01:06:34.066Z,3.67
2022-11-28T01:09:04.833Z,3.67
2022-11-28T01:11:31.970Z,4.38
2022-11-28T01:14:00.582Z,5.15
2022-11-28T01:16:28.373Z,4.82
2022-11-28T01:18:55.206Z,4.13
2022-11-28T01:21:22.104Z,4.63
2022-11-28T01:23:49.056Z,4.78
2022-11-28T01:26:19.300Z,4.43
2022-11-28T01:28:46.499Z,4.75
2022-11-28T01:31:16.749Z,3.90
2022-11-28T01:33:43.946Z,5.47
2022-11-28T01:36:11.749Z,4.32
2022-11-28T01:38:38.795Z,3.80
2022-11-28T01:41:05.701Z,4.60
2022-11-28T01:43:32.814Z,4.13
2022-11-28T01:45:59.625Z,4.15
2022-11-28T01:48:41.465Z,3.67
2022-11-28T01:51:10.101Z,4.47
2022-11-28T01:53:41.674Z,4.43
2022-11-28T01:56:25.338Z,3.70
2022-11-28T01:58:59.608Z,4.53
2022-11-28T02:01:26.373Z,4.78
2022-11-28T02:03:54.220Z,5.45
2022-11-28T02:06:23.152Z,4.30
2022-11-28T02:08:54.116Z,4.47
2022-11-28T02:11:43.117Z,4.78
2022-11-28T02:16:42.077Z,4.70
2022-11-28T02:19:14.524Z,4.05
2022-11-28T02:21:56.090Z,5.00
2022-11-28T02:24:47.273Z,4.82
2022-11-28T02:27:43.953Z,4.03
2022-11-28T02:30:46.162Z,4.68
2022-11-28T02:33:33.461Z,4.57
2022-11-28T02:36:15.580Z,4.57
2022-11-28T02:38:47.238Z,4.22
2022-11-28T02:41:35.224Z,4.40
2022-11-28T02:44:35.035Z,4.07
2022-11-28T02:47:12.737Z,4.32
2022-11-28T02:49:47.677Z,4.20
2022-11-28T02:52:23.623Z,4.45
2022-11-28T02:54:52.280Z,5.68
2022-11-28T02:57:18.815Z,5.10
2022-11-28T02:59:50.405Z,4.57
2022-11-28T03:02:25.450Z,5.40
2022-11-28T03:05:38.512Z,4.93
2022-11-28T03:08:23.089Z,4.72
2022-11-28T03:11:02.250Z,4.18
2022-11-28T03:16:14.827Z,4.00
2022-11-28T03:19:04.738Z,4.78
2022-11-28T03:21:51.048Z,4.63
2022-11-28T03:24:31.185Z,4.72
2022-11-28T03:27:06.272Z,4.32
2022-11-28T03:29:45.681Z,4.25
2022-11-28T03:32:20.619Z,4.40
2022-11-28T03:34:52.335Z,4.13
2022-11-28T03:37:26.587Z,4.25
2022-11-28T03:40:02.328Z,4.72
2022-11-28T03:42:32.392Z,3.58
2022-11-28T03:45:10.721Z,4.43
2022-11-28T03:47:45.221Z,4.50
2022-11-28T03:50:19.564Z,5.35
2022-11-28T03:52:53.020Z,5.90
2022-11-28T03:55:29.514Z,4.18
2022-11-28T03:58:33.976Z,4.28
2022-11-28T04:01:14.322Z,4.30
2022-11-28T04:03:55.935Z,4.40
2022-11-28T04:06:36.438Z,5.28
2022-11-28T04:09:14.241Z,4.88
2022-11-28T04:11:55.524Z,5.40
2022-11-28T04:14:34.166Z,5.07
2022-11-28T04:17:17.924Z,4.80
2022-11-28T04:19:56.057Z,5.85
2022-11-28T04:22:39.297Z,4.20
2022-11-28T04:25:10.748Z,6.57
2022-11-28T04:27:46.478Z,5.47
2022-11-28T04:30:14.734Z,5.95
2022-11-28T04:32:47.523Z,4.37
2022-11-28T04:35:35.267Z,6.32
2022-11-28T04:38:05.235Z,5.10
2022-11-28T04:40:38.215Z,5.90
2022-11-28T04:43:10.815Z,5.35
2022-11-28T04:45:49.200Z,4.65
2022-11-28T04:48:16.172Z,5.63
2022-11-28T04:50:50.117Z,5.88
2022-11-28T04:53:26.897Z,4.75
2022-11-28T04:56:01.606Z,5.53
2022-11-28T04:58:35.783Z,5.45
2022-11-28T05:01:07.002Z,5.90
2022-11-28T05:03:36.759Z,4.95
2022-11-28T05:06:06.374Z,4.47
2022-11-28T05:08:32.946Z,4.88
2022-11-28T05:10:59.463Z,5.90
2022-11-28T05:13:25.982Z,9.35
2022-11-28T05:15:52.579Z,8.27
2022-11-28T05:18:19.133Z,7.43
2022-11-28T05:20:45.764Z,7.93
2022-11-28T05:23:12.287Z,7.90
2022-11-28T05:25:39.963Z,8.65
2022-11-28T05:28:06.466Z,7.78
2022-11-28T05:30:33.053Z,6.35
2022-11-28T05:32:59.992Z,6.57
2022-11-28T05:35:26.594Z,5.85
2022-11-28T05:37:53.222Z,9.02
2022-11-28T05:40:19.839Z,8.30
2022-11-28T05:42:46.423Z,7.40
2022-11-28T05:45:12.967Z,7.45
2022-11-28T05:47:39.594Z,6.10
2022-11-28T05:50:06.922Z,5.93
2022-11-28T05:52:33.555Z,5.97
2022-11-28T05:55:00.442Z,5.78
2022-11-28T05:57:29.905Z,5.72
2022-11-28T05:59:57.078Z,5.25
2022-11-28T06:02:23.945Z,4.40
2022-11-28T06:04:50.659Z,5.78
2022-11-28T06:07:18.833Z,6.30
2022-11-28T06:09:45.782Z,5.13
2022-11-28T06:12:12.458Z,5.00
2022-11-28T06:14:39.175Z,5.07
2022-11-28T06:17:05.697Z,5.82
2022-11-28T06:19:32.236Z,5.40
2022-11-28T06:21:58.831Z,6.60
2022-11-28T06:24:25.414Z,7.50
2022-11-28T06:26:51.975Z,5.90
2022-11-28T06:29:18.605Z,6.70
2022-11-28T06:31:45.222Z,6.25
2022-11-28T06:34:13.041Z,5.18
2022-11-28T06:36:40.172Z,5.72
2022-11-28T06:39:06.857Z,4.18
2022-11-28T06:41:33.411Z,5.85
2022-11-28T06:44:00.078Z,6.55
2022-11-28T06:46:26.672Z,5.60
2022-11-28T06:48:53.431Z,4.30
2022-11-28T06:51:20.699Z,4.43
2022-11-28T06:53:47.352Z,4.63
2022-11-28T06:56:16.584Z,4.55
2022-11-28T06:58:44.145Z,5.65
2022-11-28T07:01:14.123Z,6.32
2022-11-28T07:03:41.139Z,5.05
2022-11-28T07:06:08.389Z,5.20
2022-11-28T07:08:36.189Z,4.95
2022-11-28T07:11:11.402Z,5.93
2022-11-28T07:13:39.496Z,6.30
2022-11-28T07:16:07.303Z,5.78
2022-11-28T07:18:34.315Z,5.55
2022-11-28T07:21:01.247Z,6.15
2022-11-28T07:23:27.974Z,6.43
2022-11-28T07:26:00.121Z,5.80
2022-11-28T07:28:28.248Z,6.50
2022-11-28T07:31:00.476Z,7.47
2022-11-28T07:33:27.574Z,7.85
2022-11-28T07:35:54.196Z,7.35
2022-11-28T07:38:20.796Z,6.78
2022-11-28T07:40:47.329Z,7.40
2022-11-28T07:43:13.882Z,7.75
2022-11-28T07:45:59.386Z,7.13
2022-11-28T07:48:26.929Z,7.03
2022-11-28T07:50:53.542Z,6.70
2022-11-28T07:53:20.203Z,7.50
2022-11-28T07:55:46.791Z,8.23
2022-11-28T07:58:13.377Z,6.25
2022-11-28T08:00:40.100Z,7.78
2022-11-28T08:03:06.964Z,6.15
2022-11-28T08:05:33.817Z,6.72
2022-11-28T08:08:00.395Z,8.80
2022-11-28T08:10:27.029Z,7.93
2022-11-28T08:12:53.636Z,8.02
2022-11-28T08:15:20.410Z,9.73
2022-11-28T08:17:46.946Z,8.23
2022-11-28T08:20:13.679Z,9.40
2022-11-28T08:22:40.551Z,9.70
2022-11-28T08:25:07.354Z,7.57
2022-11-28T08:27:34.065Z,7.88
2022-11-28T08:30:00.773Z,9.05
2022-11-28T08:32:29.586Z,7.93
2022-11-28T08:34:56.168Z,7.18
2022-11-28T08:37:22.785Z,5.93
2022-11-28T08:39:49.393Z,6.20
2022-11-28T08:42:16.010Z,6.47
2022-11-28T08:44:42.554Z,6.03
2022-11-28T08:47:09.140Z,6.43
2022-11-28T08:49:37.518Z,6.22
2022-11-28T08:52:05.224Z,5.95
2022-11-28T08:54:32.239Z,6.60
2022-11-28T08:56:59.133Z,9.35
2022-11-28T08:59:25.830Z,7.72
2022-11-28T09:01:53.801Z,8.80
2022-11-28T09:04:21.293Z,7.45
2022-11-28T09:06:47.924Z,7.60
2022-11-28T09:09:14.543Z,7.43
2022-11-28T09:11:41.409Z,7.07
2022-11-28T09:14:08.322Z,8.60
2022-11-28T09:16:35.078Z,8.60
2022-11-28T09:19:01.714Z,9.52
2022-11-28T09:21:28.246Z,7.78
2022-11-28T09:23:56.033Z,9.15
2022-11-28T09:26:24.720Z,7.45
2022-11-28T09:28:51.789Z,7.40
2022-11-28T09:31:19.463Z,7.13
2022-11-28T09:33:48.285Z,6.72
2022-11-28T09:36:21.383Z,6.22
2022-11-28T09:38:48.424Z,7.10
2022-11-28T09:41:39.548Z,6.82
2022-11-28T09:44:14.896Z,7.60
2022-11-28T09:46:42.734Z,7.97
2022-11-28T09:49:36.736Z,8.70
2022-11-28T09:52:22.468Z,7.93
2022-11-28T09:55:16.132Z,7.82
2022-11-28T09:57:48.428Z,6.95
2022-11-28T10:00:39.788Z,7.45
2022-11-28T10:03:25.300Z,7.10
2022-11-28T10:06:03.774Z,8.15
2022-11-28T10:08:33.294Z,8.80
2022-11-28T10:11:26.071Z,8.40
2022-11-28T10:14:17.619Z,6.70
2022-11-28T10:17:22.466Z,6.43
2022-11-28T10:20:05.245Z,9.20
2022-11-28T10:22:49.087Z,10.23
2022-11-28T10:25:25.883Z,8.60
2022-11-28T10:27:53.162Z,7.65
2022-11-28T10:30:27.097Z,7.20
2022-11-28T10:33:12.317Z,7.20
2022-11-28T10:35:47.650Z,7.88
2022-11-28T10:38:16.452Z,7.75
2022-11-28T10:40:58.987Z,7.07
2022-11-28T10:43:31.391Z,8.10
2022-11-28T10:46:14.235Z,5.82
2022-11-28T10:48:52.083Z,6.95
2022-11-28T10:51:31.208Z,5.82
2022-11-28T10:54:16.959Z,6.00
2022-11-28T10:57:05.213Z,5.70
2022-11-28T10:59:38.173Z,6.13
2022-11-28T11:02:21.835Z,7.10
2022-11-28T11:04:48.626Z,5.00
2022-11-28T11:07:29.580Z,6.13
2022-11-28T11:10:02.887Z,7.15
2022-11-28T11:12:33.728Z,5.93
2022-11-28T11:15:15.995Z,6.90
2022-11-28T11:17:42.578Z,6.57
2022-11-28T11:20:31.131Z,6.60
2022-11-28T11:23:00.960Z,6.20
2022-11-28T11:25:31.285Z,7.35
2022-11-28T11:28:04.186Z,5.70
2022-11-28T11:30:34.735Z,6.45
2022-11-28T11:33:04.404Z,5.85
2022-11-28T11:35:36.018Z,7.63
2022-11-28T11:38:20.898Z,5.95
2022-11-28T11:40:48.725Z,7.00
2022-11-28T11:43:32.868Z,7.38
2022-11-28T11:46:14.223Z,6.70
2022-11-28T11:48:42.398Z,6.38
2022-11-28T11:51:32.748Z,7.77
2022-11-28T11:54:14.110Z,6.57
2022-11-28T11:56:44.182Z,7.50
2022-11-28T11:59:19.368Z,6.40
2022-11-28T12:01:50.002Z,7.25
2022-11-28T12:04:44.686Z,8.35
2022-11-28T12:07:22.274Z,7.10
2022-11-28T12:09:50.321Z,6.78
2022-11-28T12:12:27.551Z,6.70
2022-11-28T12:14:54.245Z,5.78
2022-11-28T12:17:55.733Z,5.90
2022-11-28T12:20:58.216Z,6.57
2022-11-28T12:23:36.971Z,6.40
2022-11-28T12:26:21.138Z,7.22
2022-11-28T12:29:15.767Z,6.75
2022-11-28T12:32:25.535Z,8.35
2022-11-28T12:35:39.289Z,6.97
2022-11-28T12:38:27.337Z,6.68
2022-11-28T12:41:51.155Z,7.33
2022-11-28T12:44:54.087Z,6.75
2022-11-28T12:47:26.752Z,6.55
2022-11-28T12:50:30.036Z,6.78
2022-11-28T12:53:25.891Z,6.07
2022-11-28T12:56:01.131Z,6.28
2022-11-28T12:58:47.361Z,6.97
2022-11-28T13:01:54.911Z,6.55
2022-11-28T13:04:24.231Z,7.00
2022-11-28T13:07:13.913Z,6.32
2022-11-28T13:09:43.519Z,5.93
2022-11-28T13:12:37.978Z,8.98
2022-11-28T13:15:27.912Z,6.22
2022-11-28T13:18:11.279Z,5.28
2022-11-28T13:20:40.040Z,5.97
2022-11-28T13:23:28.543Z,6.65
2022-11-28T13:26:10.181Z,7.18
2022-11-28T13:28:46.966Z,6.78
2022-11-28T13:31:25.681Z,5.78
2022-11-28T13:33:54.536Z,5.85
2022-11-28T13:39:50.859Z,6.88
2022-11-28T13:42:59.417Z,6.32
2022-11-28T13:45:32.011Z,7.03
2022-11-28T13:48:00.629Z,6.32
2022-11-28T13:50:30.308Z,6.53
2022-11-28T13:53:00.446Z,7.45
2022-11-28T13:55:51.324Z,7.07
2022-11-28T13:58:33.396Z,6.03
2022-11-28T14:01:04.354Z,7.05
2022-11-28T14:03:34.293Z,6.93
2022-11-28T14:06:05.356Z,5.63
2022-11-28T14:08:43.680Z,7.20
2022-11-28T14:11:49.630Z,5.90
2022-11-28T14:14:44.434Z,6.85
2022-11-28T14:17:22.219Z,6.57
2022-11-28T14:20:16.559Z,7.65
2022-11-28T14:23:10.982Z,7.40
2022-11-28T14:25:47.448Z,7.35
2022-11-28T14:28:23.997Z,6.95
2022-11-28T14:30:52.119Z,6.15
2022-11-28T14:33:23.875Z,8.37
2022-11-28T14:35:50.572Z,6.75
2022-11-28T14:38:35.316Z,6.03
2022-11-28T14:41:05.726Z,6.90
2022-11-28T14:43:46.947Z,5.40
2022-11-28T14:46:16.814Z,5.05
2022-11-28T14:48:59.256Z,7.15
2022-11-28T14:51:44.284Z,7.47
2022-11-28T14:54:37.237Z,7.32
2022-11-28T14:57:17.603Z,7.82
2022-11-28T14:59:45.169Z,6.10
2022-11-28T15:02:11.670Z,7.82
2022-11-28T15:04:55.603Z,7.43
2022-11-28T15:07:22.220Z,6.63
2022-11-28T15:10:13.364Z,8.90
2022-11-28T15:13:21.924Z,8.77
2022-11-28T15:15:53.446Z,9.82
2022-11-28T15:18:22.577Z,9.07
2022-11-28T15:23:35.255Z,8.95
2022-11-28T15:26:03.352Z,7.63
2022-11-28T15:28:33.953Z,9.30
2022-11-28T15:31:03.479Z,12.20
2022-11-28T15:33:30.956Z,10.40
2022-11-28T15:36:02.166Z,10.15
2022-11-28T15:38:31.359Z,9.95
2022-11-28T15:40:59.466Z,12.27
2022-11-28T15:43:26.621Z,11.77
2022-11-28T15:45:54.926Z,11.98
2022-11-28T15:48:27.343Z,15.80
2022-11-28T15:50:54.102Z,13.75
2022-11-28T15:53:21.717Z,11.68
2022-11-28T15:56:07.750Z,10.95
2022-11-28T15:58:34.408Z,13.05
2022-11-28T16:01:08.992Z,12.73
2022-11-28T16:03:41.799Z,11.45
2022-11-28T16:06:08.845Z,12.35
2022-11-28T16:08:42.750Z,11.40
2022-11-28T16:11:10.499Z,11.13
2022-11-28T16:13:40.483Z,11.95
2022-11-28T16:16:14.962Z,11.18
2022-11-28T16:18:51.443Z,10.52
2022-11-28T16:21:18.035Z,8.13
2022-11-28T16:23:44.565Z,8.75
2022-11-28T16:26:53.201Z,9.23
2022-11-28T16:29:23.625Z,8.95
2022-11-28T16:31:50.522Z,9.80
2022-11-28T16:34:37.197Z,9.05
2022-11-28T16:37:11.538Z,9.88
2022-11-28T16:39:38.190Z,12.63
2022-11-28T16:42:11.878Z,10.07
2022-11-28T16:44:38.463Z,11.07
2022-11-28T16:47:05.052Z,10.23
2022-11-28T16:49:39.315Z,10.07
2022-11-28T16:52:21.108Z,8.88
2022-11-28T16:55:00.037Z,9.18
2022-11-28T16:57:45.705Z,9.30
2022-11-28T17:00:12.735Z,9.80
2022-11-28T17:02:39.313Z,7.55
2022-11-28T17:05:06.218Z,9.38
2022-11-28T17:07:33.157Z,9.05
2022-11-28T17:09:59.718Z,9.73
2022-11-28T17:12:29.735Z,9.90
2022-11-28T17:14:58.239Z,16.58
2022-11-28T17:17:25.118Z,12.27
2022-11-28T17:19:52.449Z,11.48
2022-11-28T17:22:23.128Z,9.65
2022-11-28T17:24:51.752Z,11.57
2022-11-28T17:27:18.593Z,8.48
2022-11-28T17:29:45.361Z,12.23
2022-11-28T17:32:13.943Z,18.10
2022-11-28T17:34:43.913Z,13.65
2022-11-28T17:37:10.735Z,12.48
2022-11-28T17:39:37.691Z,11.38
2022-11-28T17:42:05.073Z,11.75
2022-11-28T17:44:34.612Z,10.27
2022-11-28T17:47:02.769Z,11.57
2022-11-28T17:49:30.776Z,11.00
2022-11-28T17:51:57.782Z,13.82
2022-11-28T17:54:26.625Z,12.63
2022-11-28T17:56:54.367Z,14.60
2022-11-28T17:59:23.285Z,11.90
2022-11-28T18:01:50.480Z,13.95
2022-11-28T18:04:17.240Z,13.75
2022-11-28T18:06:45.313Z,10.93
2022-11-28T18:09:12.697Z,13.07
2022-11-28T18:11:42.845Z,13.75
2022-11-28T18:14:09.892Z,11.65
2022-11-28T18:16:36.865Z,14.85
2022-11-28T18:19:04.206Z,12.32
2022-11-28T18:21:31.263Z,13.25
2022-11-28T18:23:58.111Z,10.68
2022-11-28T18:26:26.175Z,12.70
2022-11-28T18:28:53.723Z,12.38
2022-11-28T18:31:26.089Z,15.65
2022-11-28T18:33:57.413Z,13.10
2022-11-28T18:36:28.943Z,12.55
2022-11-28T18:39:03.401Z,13.60
2022-11-28T18:41:30.561Z,16.30
2022-11-28T18:43:59.323Z,12.52
2022-11-28T18:46:27.848Z,11.35
2022-11-28T18:48:54.945Z,12.10
2022-11-28T18:51:25.563Z,12.88
2022-11-28T18:53:53.542Z,11.63
2022-11-28T18:56:21.214Z,11.48
2022-11-28T18:58:51.773Z,12.52
2022-11-28T19:01:22.146Z,12.45
2022-11-28T19:03:54.305Z,13.15
2022-11-28T19:06:22.192Z,13.15
2022-11-28T19:08:53.592Z,11.38
2022-11-28T19:11:20.544Z,13.32
2022-11-28T19:13:48.197Z,14.70
2022-11-28T19:16:21.153Z,14.32
2022-11-28T19:18:47.722Z,13.52
2022-11-28T19:21:20.129Z,10.07
2022-11-28T19:23:49.843Z,13.88
2022-11-28T19:26:19.704Z,13.90
2022-11-28T19:28:47.172Z,15.32
2022-11-28T19:31:15.252Z,14.23
2022-11-28T19:33:44.769Z,19.52
2022-11-28T19:36:13.139Z,18.73
2022-11-28T19:38:40.559Z,15.18
2022-11-28T19:41:19.132Z,13.88
2022-11-28T19:43:46.461Z,15.18
2022-11-28T19:46:14.423Z,14.45
2022-11-28T19:48:42.353Z,17.08
2022-11-28T19:51:10.360Z,16.25
2022-11-28T19:53:39.439Z,14.73
2022-11-28T19:58:36.844Z,11.77
2022-11-28T20:01:09.220Z,14.15
2022-11-28T20:03:38.147Z,15.02
2022-11-28T20:06:15.599Z,13.48
2022-11-28T20:08:43.123Z,12.98
2022-11-28T20:11:13.905Z,12.15
2022-11-28T20:13:41.689Z,14.00
2022-11-28T20:16:09.793Z,13.48
2022-11-28T20:18:38.387Z,12.95
2022-11-28T20:21:10.071Z,12.77
2022-11-28T20:23:48.877Z,12.43
2022-11-28T20:26:16.900Z,12.20
2022-11-28T20:28:44.389Z,11.75
2022-11-28T20:31:19.696Z,11.30
2022-11-28T20:33:46.889Z,15.40
2022-11-28T20:36:17.839Z,13.73
2022-11-28T20:38:44.635Z,13.77
2022-11-28T20:41:14.071Z,14.10
2022-11-28T20:43:40.864Z,12.85
2022-11-28T20:46:13.325Z,12.07
2022-11-28T20:48:40.689Z,13.80
2022-11-28T20:51:08.931Z,12.55
2022-11-28T20:53:37.403Z,15.07
2022-11-28T20:56:06.104Z,14.48
2022-11-28T20:58:33.380Z,13.02
2022-11-28T21:01:03.226Z,10.90
2022-11-28T21:03:29.865Z,12.20
2022-11-28T21:06:00.855Z,11.60
2022-11-28T21:08:30.432Z,12.63
2022-11-28T21:13:24.085Z,11.52
2022-11-28T21:15:52.001Z,10.82
2022-11-28T21:18:18.579Z,11.25
2022-11-28T21:20:46.703Z,11.63
2022-11-28T21:23:14.789Z,11.30
2022-11-28T21:25:43.318Z,11.65
2022-11-28T21:28:11.121Z,11.40
2022-11-28T21:30:43.493Z,12.52
2022-11-28T21:33:11.408Z,13.30
2022-11-28T21:35:39.448Z,13.45
2022-11-28T21:38:07.073Z,13.23
2022-11-28T21:40:33.665Z,14.13
2022-11-28T21:43:00.258Z,14.55
2022-11-28T21:45:26.918Z,13.32
2022-11-28T21:47:53.559Z,13.70
2022-11-28T21:50:20.136Z,13.30
2022-11-28T21:52:46.732Z,14.38
2022-11-28T21:55:13.272Z,14.05
2022-11-28T21:57:42.093Z,13.95
2022-11-28T22:00:25.645Z,12.70
2022-11-28T22:03:02.566Z,10.60
2022-11-28T22:05:31.971Z,12.13
2022-11-28T22:07:58.580Z,12.10
2022-11-28T22:10:25.186Z,11.13
2022-11-28T22:12:52.391Z,11.75
2022-11-28T22:15:19.488Z,12.32
2022-11-28T22:17:46.129Z,13.63
2022-11-28T22:20:12.918Z,12.75
2022-11-28T22:22:39.461Z,12.68
2022-11-28T22:25:06.614Z,13.27
2022-11-28T22:27:35.386Z,11.63
2022-11-28T22:30:02.184Z,9.88
2022-11-28T22:32:28.685Z,11.48
2022-11-28T22:34:55.178Z,12.05
2022-11-28T22:37:23.102Z,13.18
2022-11-28T22:39:49.707Z,11.52
2022-11-28T22:42:17.665Z,12.63
2022-11-28T22:44:44.459Z,12.73
2022-11-28T22:47:11.200Z,11.70
2022-11-28T22:49:37.755Z,12.63
2022-11-28T22:52:04.532Z,13.43
2022-11-28T22:54:31.169Z,12.32
2022-11-28T22:56:58.106Z,10.73
2022-11-28T22:59:24.677Z,10.95
2022-11-28T23:01:51.378Z,11.52
2022-11-28T23:04:18.080Z,11.60
2022-11-28T23:06:44.739Z,11.52
2022-11-28T23:09:13.283Z,10.55
2022-11-28T23:11:41.332Z,10.77
2022-11-28T23:14:08.339Z,10.38
2022-11-28T23:16:39.173Z,11.45
2022-11-28T23:19:08.150Z,10.45
2022-11-28T23:21:36.988Z,11.10
2022-11-28T23:24:04.471Z,11.52
2022-11-28T23:26:32.084Z,10.23
2022-11-28T23:29:00.658Z,11.73
2022-11-28T23:31:29.648Z,12.32
2022-11-28T23:33:56.929Z,11.88
2022-11-28T23:36:24.982Z,11.10
2022-11-28T23:38:56.159Z,10.13
2022-11-28T23:41:23.477Z,11.93
2022-11-28T23:43:50.295Z,8.90
2022-11-28T23:46:17.954Z,9.35
2022-11-28T23:48:45.464Z,8.93
2022-11-28T23:51:13.872Z,9.52
2022-11-28T23:53:41.855Z,9.43
2022-11-28T23:56:20.655Z,9.15
2022-11-28T23:58:47.846Z,10.63
